createdAt,value
2018-06-08T00:00:53.743Z,20.20
2018-06-08T00:03:23.626Z,20.20
2018-06-08T00:05:53.054Z,20.20
2018-06-08T00:08:24.859Z,20.10
2018-06-08T00:10:56.267Z,20.10
2018-06-08T00:13:26.497Z,20.10
2018-06-08T00:15:57.630Z,20.10
2018-06-08T00:18:28.774Z,20.10
2018-06-08T00:20:58.696Z,20.10
2018-06-08T00:23:30.035Z,20.10
2018-06-08T00:25:59.802Z,20.10
2018-06-08T00:28:29.293Z,20.10
2018-06-08T00:30:59.446Z,20.10
2018-06-08T00:33:28.735Z,20.10
2018-06-08T00:35:58.096Z,20.10
2018-06-08T00:38:28.381Z,20.10
2018-06-08T00:40:58.767Z,20.10
2018-06-08T00:43:28.870Z,20.10
2018-06-08T00:45:58.233Z,20.10
2018-06-08T00:48:29.633Z,20.10
2018-06-08T00:51:00.267Z,20.10
2018-06-08T00:53:32.777Z,20.00
2018-06-08T00:56:02.817Z,20.00
2018-06-08T00:58:34.809Z,20.00
2018-06-08T01:01:04.535Z,20.00
2018-06-08T01:03:33.822Z,19.90
2018-06-08T01:06:03.467Z,19.90
2018-06-08T01:08:34.482Z,19.90
2018-06-08T01:11:04.615Z,19.90
2018-06-08T01:13:34.260Z,19.90
2018-06-08T01:16:04.054Z,19.90
2018-06-08T01:18:33.808Z,19.90
2018-06-08T01:21:02.812Z,19.80
2018-06-08T01:23:34.465Z,19.80
2018-06-08T01:26:03.990Z,19.80
2018-06-08T01:28:34.043Z,19.70
2018-06-08T01:31:03.395Z,19.70
2018-06-08T01:33:33.643Z,19.70
2018-06-08T01:36:02.652Z,19.70
2018-06-08T01:38:32.930Z,19.60
2018-06-08T01:41:01.493Z,19.60
2018-06-08T01:43:32.168Z,19.60
2018-06-08T01:46:01.082Z,19.60
2018-06-08T01:48:30.450Z,19.60
2018-06-08T01:51:01.330Z,19.60
2018-06-08T01:53:30.942Z,19.60
2018-06-08T01:56:01.390Z,19.60
2018-06-08T01:58:31.474Z,19.50
2018-06-08T02:01:01.313Z,19.50
2018-06-08T02:03:32.802Z,19.50
2018-06-08T02:06:02.155Z,19.40
2018-06-08T02:08:33.863Z,19.40
2018-06-08T02:11:03.395Z,19.40
2018-06-08T02:13:35.757Z,19.40
2018-06-08T02:16:06.685Z,19.40
2018-06-08T02:18:38.674Z,19.30
2018-06-08T02:21:10.699Z,19.30
2018-06-08T02:23:41.575Z,19.40
2018-06-08T02:26:12.670Z,19.30
2018-06-08T02:28:43.659Z,19.30
2018-06-08T02:31:12.459Z,19.30
2018-06-08T02:33:42.492Z,19.20
2018-06-08T02:36:12.291Z,19.20
2018-06-08T02:38:43.386Z,19.20
2018-06-08T02:41:12.942Z,19.20
2018-06-08T02:43:42.199Z,19.10
2018-06-08T02:46:12.380Z,19.10
2018-06-08T02:48:40.866Z,19.10
2018-06-08T02:51:10.612Z,19.10
2018-06-08T02:53:40.331Z,19.10
2018-06-08T02:56:10.166Z,19.10
2018-06-08T02:58:40.843Z,19.00
2018-06-08T03:01:12.566Z,19.00
2018-06-08T03:03:41.550Z,19.00
2018-06-08T03:06:11.262Z,19.00
2018-06-08T03:08:42.101Z,19.00
2018-06-08T03:11:11.256Z,19.00
2018-06-08T03:13:42.155Z,18.90
2018-06-08T03:16:11.034Z,19.00
2018-06-08T03:18:39.523Z,19.00
2018-06-08T03:21:10.015Z,19.00
2018-06-08T03:23:41.011Z,19.00
2018-06-08T03:26:11.813Z,19.00
2018-06-08T03:28:41.054Z,19.00
2018-06-08T03:31:10.036Z,19.00
2018-06-08T03:33:38.590Z,19.00
2018-06-08T03:36:08.486Z,19.00
2018-06-08T03:38:38.493Z,19.00
2018-06-08T03:41:10.067Z,19.00
2018-06-08T03:43:39.668Z,19.00
2018-06-08T03:46:09.614Z,19.00
2018-06-08T03:48:39.466Z,19.00
2018-06-08T03:51:10.574Z,19.00
2018-06-08T03:53:40.026Z,19.00
2018-06-08T03:56:10.252Z,19.00
2018-06-08T03:58:41.191Z,19.00
2018-06-08T04:01:10.007Z,19.00
2018-06-08T04:03:40.040Z,19.00
2018-06-08T04:06:09.121Z,19.00
2018-06-08T04:08:40.408Z,19.00
2018-06-08T04:11:10.494Z,19.10
2018-06-08T04:13:40.306Z,19.00
2018-06-08T04:16:10.397Z,19.10
2018-06-08T04:18:40.062Z,19.10
2018-06-08T04:21:09.386Z,19.10
2018-06-08T04:23:40.487Z,19.20
2018-06-08T04:26:11.147Z,19.20
2018-06-08T04:28:41.426Z,19.20
2018-06-08T04:31:11.386Z,19.20
2018-06-08T04:33:42.374Z,19.20
2018-06-08T04:36:12.076Z,19.20
2018-06-08T04:38:42.558Z,19.20
2018-06-08T04:41:12.967Z,19.20
2018-06-08T04:43:43.596Z,19.20
2018-06-08T04:46:12.838Z,19.20
2018-06-08T04:48:45.738Z,19.10
2018-06-08T04:51:14.579Z,19.00
2018-06-08T04:53:45.906Z,19.00
2018-06-08T04:56:18.907Z,19.00
2018-06-08T04:58:50.174Z,19.00
2018-06-08T05:01:20.191Z,18.90
2018-06-08T05:03:50.436Z,18.90
2018-06-08T05:06:20.614Z,19.00
2018-06-08T05:08:51.095Z,19.10
2018-06-08T05:11:21.641Z,19.20
2018-06-08T05:13:53.019Z,19.30
2018-06-08T05:16:23.935Z,19.40
2018-06-08T05:18:55.250Z,19.50
2018-06-08T05:21:25.694Z,19.60
2018-06-08T05:23:56.763Z,19.70
2018-06-08T05:26:27.046Z,19.80
2018-06-08T05:28:58.449Z,19.80
2018-06-08T05:31:28.979Z,19.80
2018-06-08T05:33:58.964Z,19.80
2018-06-08T05:36:29.530Z,19.80
2018-06-08T05:39:00.722Z,19.90
2018-06-08T05:41:29.726Z,19.90
2018-06-08T05:44:00.969Z,19.90
2018-06-08T05:46:30.181Z,20.00
2018-06-08T05:49:01.874Z,20.00
2018-06-08T05:51:30.811Z,20.00
2018-06-08T05:53:59.323Z,20.00
2018-06-08T05:56:28.371Z,20.10
2018-06-08T05:58:59.895Z,20.20
2018-06-08T06:01:29.358Z,20.20
2018-06-08T06:03:59.399Z,20.30
2018-06-08T06:06:29.151Z,20.40
2018-06-08T06:08:58.855Z,20.40
2018-06-08T06:11:27.659Z,20.40
2018-06-08T06:13:56.561Z,20.50
2018-06-08T07:47:23.427Z,20.50
2018-06-08T07:49:51.906Z,21.80
2018-06-08T07:52:22.051Z,21.90
2018-06-08T07:54:50.759Z,21.80
2018-06-08T07:57:19.562Z,21.90
2018-06-08T07:59:49.550Z,21.90
2018-06-08T08:02:18.842Z,21.80
2018-06-08T08:04:48.179Z,21.90
2018-06-08T08:07:18.459Z,21.90
2018-06-08T08:09:47.427Z,21.80
2018-06-08T08:12:18.299Z,21.80
2018-06-08T08:17:18.574Z,21.80
2018-06-08T08:19:48.436Z,21.90
2018-06-08T08:22:18.745Z,22.00
2018-06-08T08:24:48.939Z,22.00
2018-06-08T08:27:18.760Z,22.00
2018-06-08T08:29:49.120Z,22.00
2018-06-08T08:32:21.446Z,21.90
2018-06-08T08:34:52.290Z,21.90
2018-06-08T08:37:21.830Z,21.80
2018-06-08T08:39:50.344Z,21.70
2018-06-08T08:42:21.264Z,21.60
2018-06-08T08:44:50.425Z,21.60
2018-06-08T08:47:19.274Z,21.60
2018-06-08T08:49:47.815Z,21.50
2018-06-08T08:52:16.335Z,21.50
2018-06-08T08:54:44.866Z,21.40
2018-06-08T08:57:13.382Z,21.50
2018-06-08T08:59:42.255Z,21.50
2018-06-08T09:06:09.017Z,21.60
2018-06-08T09:08:38.414Z,21.60
2018-06-08T09:11:06.955Z,21.70
2018-06-08T09:13:35.858Z,21.80
2018-06-08T09:16:04.379Z,21.90
2018-06-08T09:18:32.893Z,22.10
2018-06-08T09:21:01.746Z,22.10
2018-06-08T09:23:30.616Z,22.20
2018-06-08T09:25:59.479Z,22.20
2018-06-08T09:28:27.994Z,22.40
2018-06-08T09:30:56.498Z,22.40
2018-06-08T09:33:26.166Z,22.50
2018-06-08T09:35:54.680Z,22.50
2018-06-08T09:40:52.857Z,22.50
2018-06-08T09:43:22.697Z,22.60
2018-06-08T09:45:51.805Z,22.50
2018-06-08T09:48:20.978Z,22.40
2018-06-08T09:50:49.497Z,22.40
2018-06-08T09:53:18.690Z,22.40
2018-06-08T09:55:47.447Z,22.30
2018-06-08T09:58:16.615Z,22.30
2018-06-08T10:00:45.125Z,22.20
2018-06-08T10:03:15.682Z,22.00
2018-06-08T10:08:14.681Z,22.00
2018-06-08T10:10:43.482Z,21.90
2018-06-08T10:13:14.855Z,21.80
2018-06-08T10:15:46.063Z,21.70
2018-06-08T10:18:15.251Z,21.70
2018-06-08T10:20:45.258Z,21.70
2018-06-08T10:23:14.903Z,21.70
2018-06-08T10:25:43.610Z,21.70
2018-06-08T10:28:13.034Z,21.70
2018-06-08T10:30:41.643Z,21.60
2018-06-08T10:33:10.947Z,21.50
2018-06-08T10:35:39.482Z,21.40
2018-06-08T10:38:07.992Z,21.50
2018-06-08T10:40:36.867Z,21.40
2018-06-08T10:43:05.539Z,21.40
2018-06-08T10:45:34.769Z,21.40
2018-06-08T10:48:03.562Z,21.30
2018-06-08T10:50:32.521Z,21.20
2018-06-08T10:53:01.030Z,21.20
2018-06-08T10:55:31.651Z,21.10
2018-06-08T10:58:00.767Z,21.10
2018-06-08T11:00:30.245Z,21.00
2018-06-08T11:03:00.388Z,20.90
2018-06-08T11:05:28.912Z,20.90
2018-06-08T11:07:58.452Z,20.80
2018-06-08T11:10:27.935Z,20.70
2018-06-08T11:59:36.675Z,20.60
2018-06-08T12:02:05.594Z,19.70
2018-06-08T12:04:34.252Z,19.70
2018-06-08T12:07:02.739Z,19.70
2018-06-08T12:09:31.759Z,19.70
2018-06-08T12:12:00.234Z,19.70
2018-06-08T12:14:28.710Z,19.60
2018-06-08T12:16:57.472Z,19.60
2018-06-08T12:19:25.945Z,19.50
2018-06-08T12:21:54.455Z,19.50
2018-06-08T12:24:23.322Z,19.50
2018-06-08T12:26:52.238Z,19.50
2018-06-08T12:29:20.703Z,19.50
2018-06-08T12:31:49.412Z,19.60
2018-06-08T12:34:17.906Z,19.50
2018-06-08T12:36:46.374Z,19.50
2018-06-08T13:25:56.535Z,19.60
2018-06-08T13:28:25.507Z,20.00
2018-06-08T13:30:54.092Z,20.10
2018-06-08T13:33:22.903Z,20.20
2018-06-08T13:35:52.819Z,20.40
2018-06-08T13:38:22.022Z,20.70
2018-06-08T13:40:51.684Z,20.90
2018-06-08T13:43:20.199Z,21.10
2018-06-08T13:45:48.994Z,21.10
2018-06-08T13:48:19.642Z,21.10
2018-06-08T13:50:48.177Z,21.10
2018-06-08T13:53:18.339Z,21.20
2018-06-08T13:55:47.386Z,21.10
2018-06-08T13:58:15.926Z,21.20
2018-06-08T14:00:44.414Z,21.30
2018-06-08T14:03:12.969Z,21.50
2018-06-08T14:05:41.808Z,21.60
2018-06-08T14:08:10.910Z,21.60
2018-06-08T14:10:39.381Z,21.50
2018-06-08T14:13:07.868Z,21.60
2018-06-08T14:15:36.337Z,21.60
2018-06-08T14:18:05.128Z,21.70
2018-06-08T14:20:33.697Z,21.80
2018-06-08T14:23:02.250Z,21.70
2018-06-08T14:25:30.776Z,21.80
2018-06-08T14:28:00.027Z,21.80
2018-06-08T14:30:30.982Z,21.90
2018-06-08T14:33:00.316Z,22.10
2018-06-08T14:35:29.707Z,22.20
2018-06-08T14:37:58.210Z,22.40
2018-06-08T14:40:27.722Z,22.40
2018-06-08T14:42:59.959Z,22.40
2018-06-08T14:45:29.137Z,22.40
2018-06-08T14:47:58.925Z,22.30
2018-06-08T14:50:27.875Z,22.10
2018-06-08T14:52:59.423Z,22.00
2018-06-08T14:55:29.797Z,22.00
2018-06-08T14:58:00.228Z,22.00
2018-06-08T15:00:29.342Z,22.10
2018-06-08T15:02:58.778Z,22.30
2018-06-08T15:05:28.796Z,22.50
2018-06-08T15:07:57.532Z,22.60
2018-06-08T15:10:26.702Z,22.70
2018-06-08T15:12:55.926Z,22.80
2018-06-08T15:15:25.375Z,22.90
2018-06-08T15:17:55.275Z,22.80
2018-06-08T15:20:26.637Z,22.80
2018-06-08T15:22:56.483Z,22.70
2018-06-08T15:25:26.979Z,22.70
2018-06-08T15:27:57.452Z,22.70
2018-06-08T15:30:26.959Z,22.60
2018-06-08T15:32:57.158Z,22.60
2018-06-08T15:35:26.131Z,22.50
2018-06-08T15:37:55.362Z,22.50
2018-06-08T15:40:24.351Z,22.40
2018-06-08T15:42:53.003Z,22.40
2018-06-08T15:45:22.018Z,22.40
2018-06-08T15:47:50.964Z,22.40
2018-06-08T15:50:19.760Z,22.50
2018-06-08T15:52:48.587Z,22.50
2018-06-08T15:55:17.115Z,22.40
2018-06-08T15:57:45.967Z,22.40
2018-06-08T16:00:15.158Z,22.50
2018-06-08T16:02:43.983Z,22.40
2018-06-08T16:05:13.350Z,22.50
2018-06-08T16:07:43.858Z,22.50
2018-06-08T16:10:13.581Z,22.40
2018-06-08T16:12:43.364Z,22.20
2018-06-08T16:15:13.630Z,22.20
2018-06-08T16:17:43.754Z,22.20
2018-06-08T16:20:15.342Z,22.20
2018-06-08T16:22:47.717Z,22.20
2018-06-08T16:25:18.104Z,22.30
2018-06-08T16:27:46.619Z,22.30
2018-06-08T16:30:20.007Z,22.40
2018-06-08T16:32:54.280Z,22.40
2018-06-08T16:35:23.866Z,22.40
2018-06-08T16:37:54.555Z,22.40
2018-06-08T16:40:23.874Z,22.40
2018-06-08T16:42:54.230Z,22.40
2018-06-08T16:45:24.387Z,22.40
2018-06-08T16:47:53.805Z,22.50
2018-06-08T16:50:24.974Z,22.50
2018-06-08T16:52:55.485Z,22.60
2018-06-08T16:55:26.530Z,22.70
2018-06-08T16:57:56.952Z,22.70
2018-06-08T17:00:29.045Z,22.70
2018-06-08T17:03:00.575Z,22.60
2018-06-08T17:05:31.650Z,22.60
2018-06-08T17:08:00.824Z,22.60
2018-06-08T17:10:29.329Z,22.70
2018-06-08T17:12:59.618Z,22.70
2018-06-08T17:15:28.910Z,22.70
2018-06-08T17:17:58.328Z,22.70
2018-06-08T17:20:27.016Z,22.80
2018-06-08T17:22:58.569Z,22.80
2018-06-08T17:25:31.738Z,22.80
2018-06-08T17:28:04.883Z,22.80
2018-06-08T17:30:36.989Z,22.90
2018-06-08T17:33:08.015Z,22.90
2018-06-08T17:35:38.530Z,22.90
2018-06-08T17:38:07.747Z,22.90
2018-06-08T17:40:39.131Z,22.90
2018-06-08T17:43:11.488Z,22.90
2018-06-08T17:45:41.160Z,22.90
2018-06-08T17:48:10.774Z,22.90
2018-06-08T17:50:41.518Z,23.00
2018-06-08T17:53:11.528Z,22.90
2018-06-08T17:55:42.995Z,22.90
2018-06-08T17:58:14.862Z,22.90
2018-06-08T18:00:47.670Z,22.80
2018-06-08T18:03:19.955Z,22.70
2018-06-08T18:05:49.795Z,22.60
2018-06-08T18:08:22.030Z,22.60
2018-06-08T18:10:52.546Z,22.50
2018-06-08T18:13:22.793Z,22.50
2018-06-08T18:15:52.840Z,22.40
2018-06-08T18:18:23.578Z,22.30
2018-06-08T18:20:56.154Z,22.20
2018-06-08T18:23:28.105Z,22.10
2018-06-08T18:26:00.539Z,22.10
2018-06-08T18:28:31.022Z,22.00
2018-06-08T18:31:01.184Z,21.90
2018-06-08T18:33:31.829Z,21.90
2018-06-08T18:36:03.025Z,21.80
2018-06-08T18:39:02.798Z,21.70
2018-06-08T18:41:33.019Z,21.60
2018-06-08T18:44:04.139Z,21.50
2018-06-08T18:46:35.266Z,21.40
2018-06-08T18:49:05.310Z,21.30
2018-06-08T18:51:36.642Z,21.30
2018-06-08T18:54:07.019Z,21.10
2018-06-08T18:56:37.678Z,21.00
2018-06-08T18:59:07.626Z,21.00
2018-06-08T19:01:40.195Z,20.90
2018-06-08T19:04:11.134Z,20.80
2018-06-08T19:06:41.230Z,20.80
2018-06-08T19:09:12.060Z,20.70
2018-06-08T19:11:44.560Z,20.60
2018-06-08T19:14:13.919Z,20.60
2018-06-08T19:16:44.578Z,20.60
2018-06-08T19:19:15.175Z,20.50
2018-06-08T19:21:49.505Z,20.40
2018-06-08T19:24:20.831Z,20.40
2018-06-08T19:26:51.359Z,20.30
2018-06-08T19:29:22.786Z,20.30
2018-06-08T19:31:53.359Z,20.20
2018-06-08T19:34:24.651Z,20.20
2018-06-08T19:36:55.451Z,20.20
2018-06-08T19:39:27.459Z,20.10
2018-06-08T19:41:59.903Z,20.10
2018-06-08T19:44:29.830Z,20.10
2018-06-08T19:47:01.445Z,20.10
2018-06-08T19:49:30.906Z,20.00
2018-06-08T19:52:00.818Z,20.10
2018-06-08T19:54:29.393Z,20.10
2018-06-08T19:58:27.098Z,20.10
2018-06-08T20:00:55.616Z,20.00
2018-06-08T20:03:24.732Z,20.00
2018-06-08T20:05:53.863Z,20.00
2018-06-08T20:08:22.426Z,20.00
2018-06-08T20:10:50.974Z,20.00
2018-06-08T20:13:19.478Z,19.90
2018-06-08T20:15:48.376Z,19.90
2018-06-08T20:18:17.563Z,19.90
2018-06-08T20:20:46.394Z,19.80
2018-06-08T20:23:15.207Z,19.80
2018-06-08T20:25:44.292Z,19.70
2018-06-08T20:28:12.774Z,19.70
2018-06-08T20:30:41.257Z,19.70
2018-06-08T20:33:09.739Z,19.70
2018-06-08T20:35:38.251Z,19.70
2018-06-08T20:38:07.107Z,19.60
2018-06-08T20:40:35.838Z,19.70
2018-06-08T20:43:04.587Z,19.60
2018-06-08T20:45:34.090Z,19.70
2018-06-08T20:48:02.618Z,19.70
2018-06-08T20:50:31.176Z,19.80
2018-06-08T20:53:00.058Z,19.80
2018-06-08T20:55:28.820Z,19.80
2018-06-08T20:58:01.599Z,19.80
2018-06-08T21:00:30.138Z,19.80
2018-06-08T21:02:59.994Z,19.80
2018-06-08T21:05:28.892Z,19.80
2018-06-08T21:07:57.395Z,19.70
2018-06-08T21:10:25.911Z,19.70
2018-06-08T21:12:54.422Z,19.70
2018-06-08T21:15:22.967Z,19.70
2018-06-08T21:17:51.888Z,19.70
2018-06-08T21:20:20.379Z,19.60
2018-06-08T21:22:49.295Z,19.60
2018-06-08T21:25:18.177Z,19.50
2018-06-08T21:27:47.070Z,19.50
2018-06-08T21:30:15.547Z,19.60
2018-06-08T21:32:44.066Z,19.60
2018-06-08T21:35:12.566Z,19.60
2018-06-08T21:37:41.070Z,19.60
2018-06-08T21:40:09.585Z,19.60
2018-06-08T21:42:38.310Z,19.60
2018-06-08T21:45:06.808Z,19.50
2018-06-08T21:50:03.831Z,19.40
2018-06-08T21:52:32.391Z,19.40
2018-06-08T21:55:01.551Z,19.30
2018-06-08T21:57:30.707Z,19.20
2018-06-08T22:00:00.921Z,19.20
2018-06-08T22:02:32.973Z,19.10
2018-06-08T22:05:01.591Z,19.10
2018-06-08T22:07:30.801Z,19.00
2018-06-08T22:10:00.963Z,19.00
2018-06-08T22:12:30.791Z,18.90
2018-06-08T22:14:59.908Z,18.90
2018-06-08T22:17:28.394Z,18.90
2018-06-08T22:19:56.849Z,18.90
2018-06-08T22:22:25.717Z,18.90
2018-06-08T22:24:54.891Z,18.90
2018-06-08T22:27:23.620Z,18.80
2018-06-08T22:29:52.356Z,18.80
2018-06-08T22:32:22.094Z,18.80
2018-06-08T22:34:51.503Z,18.80
2018-06-08T22:37:22.947Z,18.80
2018-06-08T22:39:52.832Z,18.80
2018-06-08T22:42:22.307Z,18.70
2018-06-08T22:44:53.679Z,18.70
2018-06-08T22:47:22.267Z,18.70
2018-06-08T22:49:51.875Z,18.60
2018-06-08T22:52:21.406Z,18.60
2018-06-08T22:54:49.899Z,18.60
2018-06-08T22:59:48.489Z,18.50
2018-06-08T23:02:19.727Z,18.50
2018-06-08T23:04:51.194Z,18.40
2018-06-08T23:07:20.263Z,18.40
2018-06-08T23:09:50.199Z,18.40
2018-06-08T23:12:19.006Z,18.40
2018-06-08T23:14:49.151Z,18.30
2018-06-08T23:17:18.312Z,18.30
2018-06-08T23:19:47.835Z,18.20
2018-06-08T23:22:19.324Z,18.20
2018-06-08T23:24:49.546Z,18.20
2018-06-08T23:27:18.758Z,18.20
2018-06-08T23:29:48.265Z,18.10
2018-06-08T23:32:16.742Z,18.10
2018-06-08T23:34:45.234Z,18.00
2018-06-08T23:37:13.697Z,18.00
2018-06-08T23:39:43.727Z,18.00
2018-06-08T23:42:12.935Z,17.90
2018-06-08T23:44:42.119Z,17.90
2018-06-08T23:47:12.300Z,17.90
2018-06-08T23:49:43.115Z,17.90
2018-06-08T23:52:13.096Z,17.90
2018-06-08T23:54:42.567Z,17.80
2018-06-08T23:57:11.672Z,17.80
